Terminal Aerodrome Forecast
Issued by NWS Albany, NY

Current Version | Previous Version | Text Only | Print | Product List | Glossary On
Versions: 1 2 3 4 5 6 7 8 9 10 11 12 13 14 15 16 17 18 19 20 21
033 FTUS41 KALY 240523 TAFALB TAF KALB 240523Z 2406/2506 VRB03KT P6SM BKN200 FM241800 15005KT P6SM SCT070 FM250100 16003KT P6SM BKN120=

USA.gov is the U.S. government's official web portal to all federal, state and local government web resources and services.